Time;durP1;ratioP1;P1;durP2;ratioP2;P2;SDS_P1;SDS_P2;PMS_P1;PMS_P2;Temp;Humidity;BMP_temperature;BMP_pressure;BME280_temperature;BME280_humidity;BME280_pressure;Samples;Min_cycle;Max_cycle;Signal;HPM_P1;HPM_P2
2023/04/24 00:01:08;;;;;;;19.30;15.10;;;;;;;8.13;70.37;97079.91;107041;1275;22547;-80
2023/04/24 00:03:36;;;;;;;20.60;14.70;;;;;;;8.13;71.98;97077.98;106962;1275;24183;-80
2023/04/24 00:06:07;;;;;;;16.50;13.40;;;;;;;8.12;70.97;97078.70;106869;1275;25248;-81
2023/04/24 00:08:36;;;;;;;17.00;14.90;;;;;;;8.14;70.46;97074.89;106897;1275;25274;-81
2023/04/24 00:11:04;;;;;;;16.80;14.10;;;;;;;8.12;70.90;97077.36;106911;1275;22595;-80
2023/04/24 00:13:32;;;;;;;14.90;13.40;;;;;;;8.04;71.46;97070.04;106920;1254;22785;-81
2023/04/24 00:16:00;;;;;;;15.30;13.80;;;;;;;7.96;71.37;97068.48;106879;1275;22528;-81
2023/04/24 00:18:28;;;;;;;14.90;13.30;;;;;;;7.92;71.20;97066.04;106941;1275;25239;-80
2023/04/24 00:20:56;;;;;;;14.70;12.50;;;;;;;7.93;71.35;97067.57;106924;1275;25329;-80
2023/04/24 00:23:24;;;;;;;15.30;12.60;;;;;;;7.98;72.43;97063.76;106932;1275;22549;-80
2023/04/24 00:25:51;;;;;;;14.60;13.10;;;;;;;8.06;73.14;97061.21;106924;1275;22548;-80
2023/04/24 00:28:19;;;;;;;13.80;12.40;;;;;;;8.17;72.22;97059.54;106901;1275;26521;-80
2023/04/24 00:30:47;;;;;;;13.80;12.20;;;;;;;8.25;71.24;97056.04;106978;1275;22594;-80
2023/04/24 00:33:15;;;;;;;13.60;12.20;;;;;;;8.33;70.80;97051.71;106880;1275;24340;-80
2023/04/24 00:35:43;;;;;;;13.60;12.30;;;;;;;8.37;70.50;97047.75;106920;1275;22692;-80
2023/04/24 00:38:11;;;;;;;18.30;12.90;;;;;;;8.38;70.34;97047.04;106928;1275;22529;-80
2023/04/24 00:40:39;;;;;;;14.30;12.80;;;;;;;8.38;70.07;97046.29;106878;1275;25499;-80
2023/04/24 00:43:07;;;;;;;13.30;11.40;;;;;;;8.32;70.14;97039.00;106711;1275;22745;-80
2023/04/24 00:45:37;;;;;;;12.60;11.10;;;;;;;8.28;70.53;97036.73;106914;1275;22618;-80
2023/04/24 00:48:07;;;;;;;13.40;11.80;;;;;;;8.27;70.68;97039.29;106937;1275;22528;-80
2023/04/24 00:50:38;;;;;;;12.60;11.10;;;;;;;8.28;70.12;97037.11;106897;1275;24260;-79
2023/04/24 00:53:06;;;;;;;12.70;11.40;;;;;;;8.33;70.12;97033.82;106825;1275;23248;-79
2023/04/24 00:55:37;;;;;;;13.50;11.10;;;;;;;8.39;69.85;97033.48;106902;1275;22532;-79
2023/04/24 00:58:05;;;;;;;12.80;11.50;;;;;;;8.46;69.57;97030.86;106925;1275;23888;-79
2023/04/24 01:00:33;;;;;;;14.40;12.60;;;;;;;8.52;69.51;97026.16;106915;1275;22535;-80
2023/04/24 01:03:05;;;;;;;13.80;12.30;;;;;;;8.55;69.12;97027.62;106918;1275;22525;-79
2023/04/24 01:05:34;;;;;;;18.10;11.70;;;;;;;8.52;69.15;97026.64;106755;1275;22734;-79
2023/04/24 01:08:03;;;;;;;15.10;13.40;;;;;;;8.46;68.95;97023.55;106908;1275;25497;-80
2023/04/24 01:10:34;;;;;;;14.80;13.40;;;;;;;8.38;69.25;97021.64;106960;1275;22585;-79
2023/04/24 01:13:02;;;;;;;15.10;13.60;;;;;;;8.44;69.32;97020.86;106976;1275;22524;-78
2023/04/24 01:15:30;;;;;;;17.20;15.00;;;;;;;8.55;69.10;97021.45;106912;1275;22871;-79
2023/04/24 01:17:58;;;;;;;14.90;12.80;;;;;;;8.70;69.07;97024.61;106944;1275;22638;-79
2023/04/24 01:20:26;;;;;;;12.80;11.30;;;;;;;8.87;68.87;97016.55;106956;1275;22730;-79
2023/04/24 01:22:54;;;;;;;13.90;11.70;;;;;;;9.02;68.94;97019.28;106881;1275;25402;-79
2023/04/24 01:25:25;;;;;;;13.60;11.60;;;;;;;9.12;68.79;97017.08;106961;1275;22606;-79
2023/04/24 01:27:53;;;;;;;15.00;11.00;;;;;;;9.24;68.71;97012.78;107004;1275;22765;-79
2023/04/24 01:30:21;;;;;;;11.60;10.40;;;;;;;9.34;68.43;97007.00;106872;1275;25233;-79
2023/04/24 01:32:51;;;;;;;11.90;10.80;;;;;;;9.48;68.17;97005.64;106905;1275;22594;-80
2023/04/24 01:35:20;;;;;;;12.00;10.10;;;;;;;9.54;67.51;97001.64;106765;1275;25332;-80
2023/04/24 01:37:48;;;;;;;11.50;10.40;;;;;;;9.50;67.48;97007.73;106951;1275;24748;-81
2023/04/24 01:40:16;;;;;;;13.50;10.50;;;;;;;9.42;67.32;96999.91;106647;1275;24061;-82
2023/04/24 01:42:45;;;;;;;11.10;10.00;;;;;;;9.38;67.27;96998.57;106725;1276;24346;-81
2023/04/24 01:45:13;;;;;;;12.60;10.50;;;;;;;9.33;66.78;96996.71;106826;1275;25245;-80
2023/04/24 01:47:41;;;;;;;11.10;10.00;;;;;;;9.27;67.23;96993.00;106917;1275;22657;-81
2023/04/24 01:50:10;;;;;;;11.00;9.80;;;;;;;9.21;66.87;96987.73;106974;1275;22584;-81
2023/04/24 01:52:39;;;;;;;13.00;10.80;;;;;;;9.19;66.79;96983.68;106901;1275;22532;-81
2023/04/24 01:55:08;;;;;;;11.20;10.10;;;;;;;9.15;66.77;96983.04;106899;1275;23229;-81
2023/04/24 01:57:36;;;;;;;11.90;10.70;;;;;;;9.08;66.51;96979.28;106904;1275;22864;-82
2023/04/24 02:00:05;;;;;;;10.60;9.50;;;;;;;9.04;66.75;96977.47;106935;1275;24237;-81
2023/04/24 02:02:40;;;;;;;11.50;10.40;;;;;;;9.00;66.35;96978.50;106842;1275;24403;-81
2023/04/24 02:05:11;;;;;;;11.00;9.90;;;;;;;8.96;66.06;96977.75;106896;1275;24224;-81
2023/04/24 02:07:40;;;;;;;11.10;10.00;;;;;;;8.93;65.78;96975.77;106883;1275;22538;-85
2023/04/24 02:10:09;;;;;;;11.80;9.90;;;;;;;8.93;66.03;96975.09;106946;1275;22561;-81
2023/04/24 02:12:42;;;;;;;10.50;9.30;;;;;;;8.91;65.72;96971.67;106900;1276;22522;-82
2023/04/24 02:15:10;;;;;;;11.30;9.40;;;;;;;8.89;65.95;96968.91;106952;1275;22661;-82
2023/04/24 02:17:39;;;;;;;11.30;9.80;;;;;;;8.88;65.64;96966.63;107115;1275;25380;-81
2023/04/24 02:20:07;;;;;;;10.50;9.40;;;;;;;8.79;65.50;96963.15;106710;1275;22703;-81
2023/04/24 02:22:36;;;;;;;11.70;9.60;;;;;;;8.72;65.45;96959.71;106922;1275;22625;-82
2023/04/24 02:25:04;;;;;;;12.50;8.80;;;;;;;8.68;65.46;96959.89;106906;1275;23161;-81
2023/04/24 02:27:32;;;;;;;10.20;9.10;;;;;;;8.71;65.63;96951.52;106903;1275;25217;-81
2023/04/24 02:30:00;;;;;;;10.00;9.00;;;;;;;8.75;65.15;96949.30;106948;1275;22528;-82
2023/04/24 02:32:28;;;;;;;9.50;8.50;;;;;;;8.77;65.36;96946.16;106745;1276;24252;-80
2023/04/24 02:34:56;;;;;;;9.00;8.20;;;;;;;8.84;65.13;96938.42;106971;1275;25399;-80
2023/04/24 02:37:24;;;;;;;9.60;8.70;;;;;;;8.92;65.04;96941.27;106945;1275;22633;-81
2023/04/24 02:39:52;;;;;;;9.10;7.90;;;;;;;8.98;65.23;96941.79;106910;1275;24330;-81
2023/04/24 02:42:20;;;;;;;10.40;8.60;;;;;;;9.04;64.62;96937.48;106870;1275;22534;-82
2023/04/24 02:44:48;;;;;;;9.60;8.50;;;;;;;9.07;64.45;96934.61;106905;1275;22522;-82
2023/04/24 02:47:16;;;;;;;8.80;7.90;;;;;;;9.08;64.33;96932.27;106951;1276;22633;-81
2023/04/24 02:49:44;;;;;;;10.10;8.40;;;;;;;9.06;64.77;96933.29;106937;1276;24360;-81
2023/04/24 02:52:13;;;;;;;12.00;9.20;;;;;;;9.05;64.26;96932.02;106679;1276;22611;-80
2023/04/24 02:54:41;;;;;;;11.10;8.80;;;;;;;9.04;64.00;96932.92;107052;1275;22654;-81
2023/04/24 02:57:09;;;;;;;9.50;8.50;;;;;;;9.01;63.92;96927.14;107105;1275;23384;-81
2023/04/24 02:59:37;;;;;;;9.50;8.20;;;;;;;9.05;63.90;96932.23;106945;1275;22798;-81
2023/04/24 03:02:06;;;;;;;10.40;8.00;;;;;;;9.05;63.89;96933.52;106855;1275;24216;-80
2023/04/24 03:04:34;;;;;;;12.00;8.70;;;;;;;9.04;63.68;96932.73;106941;1275;23917;-79
2023/04/24 03:07:02;;;;;;;9.40;8.50;;;;;;;9.05;63.65;96932.29;106918;1273;22630;-81
2023/04/24 03:09:30;;;;;;;8.60;7.70;;;;;;;9.09;63.67;96932.73;106983;1275;24403;-83
2023/04/24 03:11:58;;;;;;;8.90;8.00;;;;;;;9.09;63.55;96931.50;106922;1273;22536;-81
2023/04/24 03:14:26;;;;;;;10.90;8.10;;;;;;;9.08;63.42;96931.07;106756;1275;22538;-80
2023/04/24 03:16:54;;;;;;;10.30;8.20;;;;;;;9.05;63.17;96928.37;106954;1275;24430;-80
2023/04/24 03:19:22;;;;;;;10.10;8.90;;;;;;;9.04;63.23;96931.63;106843;1275;22730;-80
2023/04/24 03:22:02;;;;;;;11.00;8.90;;;;;;;8.98;63.11;96931.52;107039;1275;24372;-81
2023/04/24 03:24:31;;;;;;;10.70;8.50;;;;;;;8.95;63.04;96933.40;107090;1275;22532;-80
2023/04/24 03:27:00;;;;;;;9.90;8.20;;;;;;;8.90;62.83;96926.37;106987;1275;22587;-80
2023/04/24 03:29:55;;;;;;;10.20;9.20;;;;;;;8.88;62.77;96930.35;107013;1275;22575;-79
2023/04/24 03:32:33;;;;;;;9.10;8.10;;;;;;;8.86;63.09;96931.92;107103;1275;22633;-81
2023/04/24 03:35:02;;;;;;;10.10;8.50;;;;;;;8.82;62.92;96925.59;106835;1275;25282;-81
2023/04/24 03:37:31;;;;;;;10.30;9.20;;;;;;;8.77;63.00;96925.50;107056;1275;22646;-81
2023/04/24 03:40:19;;;;;;;10.30;9.40;;;;;;;8.71;62.69;96924.54;106677;1275;22589;-79
2023/04/24 03:42:47;;;;;;;9.20;8.20;;;;;;;8.66;62.79;96920.58;106830;1275;22716;-79
2023/04/24 03:45:15;;;;;;;11.40;9.00;;;;;;;8.63;62.84;96920.07;106725;1276;23419;-81
2023/04/24 03:47:46;;;;;;;9.10;8.20;;;;;;;8.57;62.68;96922.64;106806;1276;22524;-81
2023/04/24 03:50:14;;;;;;;11.00;8.50;;;;;;;8.47;62.95;96924.42;106872;1276;22522;-80
2023/04/24 03:52:43;;;;;;;9.30;8.10;;;;;;;8.36;62.83;96929.61;106686;1276;22640;-80
2023/04/24 03:55:13;;;;;;;12.20;9.30;;;;;;;8.31;63.31;96933.88;106875;1276;22532;-80
2023/04/24 03:57:45;;;;;;;13.60;9.80;;;;;;;8.27;63.33;96932.21;106888;1273;25221;-80
2023/04/24 04:00:20;;;;;;;11.60;10.40;;;;;;;8.20;62.91;96933.80;106965;1275;25469;-82
2023/04/24 04:02:53;;;;;;;10.80;9.90;;;;;;;8.17;63.39;96933.23;106912;1275;22640;-81
2023/04/24 04:05:21;;;;;;;11.40;9.20;;;;;;;8.16;63.26;96935.96;106970;1275;22551;-83
2023/04/24 04:07:50;;;;;;;10.20;9.20;;;;;;;8.14;63.42;96936.48;106827;1275;22613;-86
2023/04/24 04:10:18;;;;;;;11.70;10.30;;;;;;;8.10;63.43;96935.20;106834;1275;22531;-83
2023/04/24 04:12:46;;;;;;;9.80;8.50;;;;;;;8.09;63.56;96932.95;107339;1275;22649;-81
2023/04/24 04:15:14;;;;;;;13.10;11.10;;;;;;;8.05;63.42;96934.98;107266;1275;22604;-82
2023/04/24 04:17:42;;;;;;;10.70;9.70;;;;;;;8.05;63.71;96933.18;107189;1275;25370;-81
2023/04/24 04:20:11;;;;;;;14.30;10.30;;;;;;;8.06;63.97;96934.91;107248;1275;22631;-80
2023/04/24 04:22:40;;;;;;;12.40;10.00;;;;;;;8.09;64.69;96931.19;106966;1276;22549;-80
2023/04/24 04:25:13;;;;;;;21.50;10.80;;;;;;;8.12;64.98;96935.19;106821;1275;24229;-80
2023/04/24 04:27:41;;;;;;;10.20;9.20;;;;;;;8.23;64.79;96930.96;107032;1275;22552;-80
2023/04/24 04:30:11;;;;;;;9.60;8.50;;;;;;;8.37;65.02;96929.31;107245;1275;22552;-80
2023/04/24 04:32:49;;;;;;;9.90;8.30;;;;;;;8.56;64.97;96930.63;107327;1275;24288;-87
2023/04/24 04:35:17;;;;;;;11.20;9.30;;;;;;;8.73;64.93;96923.67;106807;1275;24191;-82
2023/04/24 04:37:45;;;;;;;11.10;9.30;;;;;;;8.90;64.55;96922.58;107023;1275;22733;-79
2023/04/24 04:40:33;;;;;;;10.20;9.00;;;;;;;9.10;64.58;96918.45;106900;1275;25529;-78
2023/04/24 04:43:04;;;;;;;11.40;8.70;;;;;;;9.30;64.56;96920.87;107008;1275;22573;-81
2023/04/24 04:45:38;;;;;;;13.00;8.80;;;;;;;9.51;64.54;96924.73;107093;1275;25312;-81
2023/04/24 04:48:39;;;;;;;12.90;9.10;;;;;;;9.82;64.21;96925.62;106653;1275;24209;-83
2023/04/24 04:51:07;;;;;;;11.90;9.10;;;;;;;10.04;64.04;96928.05;107167;1270;22815;-79
2023/04/24 04:53:37;;;;;;;12.90;10.00;;;;;;;10.23;63.57;96926.27;107063;1275;22568;-81
2023/04/24 04:56:05;;;;;;;11.60;9.00;;;;;;;10.43;63.79;96924.29;106847;1275;25399;-79
2023/04/24 04:58:44;;;;;;;10.70;9.20;;;;;;;10.62;63.44;96918.52;107036;1275;22619;-85
2023/04/24 05:01:13;;;;;;;9.80;8.50;;;;;;;10.81;63.04;96917.59;106860;1275;22511;-82
2023/04/24 05:03:45;;;;;;;12.40;9.10;;;;;;;11.02;62.19;96919.34;106836;1275;25258;-86
2023/04/24 05:06:15;;;;;;;14.70;9.40;;;;;;;11.21;61.81;96922.02;106732;1275;24192;-91
2023/04/24 05:08:44;;;;;;;11.40;8.70;;;;;;;11.37;61.33;96922.02;106971;1275;22517;-87
2023/04/24 05:11:21;;;;;;;9.50;8.00;;;;;;;11.55;61.43;96919.52;106989;1275;24441;-88
2023/04/24 05:13:49;;;;;;;12.20;8.30;;;;;;;11.71;60.41;96924.44;106755;1275;22766;-88
2023/04/24 05:16:21;;;;;;;11.60;8.50;;;;;;;11.88;60.09;96925.70;106986;1275;25272;-88
2023/04/24 05:18:50;;;;;;;11.00;9.50;;;;;;;12.03;59.48;96924.67;107018;1275;24300;-88
2023/04/24 05:21:20;;;;;;;16.80;9.80;;;;;;;12.18;59.38;96922.98;106791;1275;22525;-88
2023/04/24 05:23:50;;;;;;;12.00;9.20;;;;;;;12.32;59.03;96923.00;106772;1275;22647;-89
2023/04/24 05:26:26;;;;;;;11.10;9.40;;;;;;;12.45;58.88;96925.22;106774;1275;24367;-87
2023/04/24 05:28:56;;;;;;;12.10;9.40;;;;;;;12.57;58.47;96925.29;107268;1275;23003;-86
2023/04/24 05:31:25;;;;;;;11.70;8.90;;;;;;;12.66;58.48;96927.40;106822;1275;22817;-87
2023/04/24 05:33:53;;;;;;;12.00;8.80;;;;;;;12.76;57.96;96927.86;107031;1275;22534;-86
2023/04/24 05:36:21;;;;;;;9.90;8.50;;;;;;;12.85;57.72;96926.06;107021;1275;23476;-85
2023/04/24 05:38:49;;;;;;;10.00;8.70;;;;;;;12.94;57.04;96925.29;106933;1275;22548;-84
2023/04/24 05:41:17;;;;;;;9.30;8.20;;;;;;;13.03;56.74;96925.23;106889;1275;25396;-87
2023/04/24 05:43:45;;;;;;;10.00;8.10;;;;;;;13.11;56.20;96927.06;106836;1275;23155;-86
2023/04/24 05:46:13;;;;;;;12.90;8.30;;;;;;;13.21;56.11;96927.88;107013;1275;22561;-86
2023/04/24 05:48:41;;;;;;;14.90;8.70;;;;;;;13.32;55.95;96927.20;106726;1275;174619;-88
2023/04/24 05:51:09;;;;;;;13.20;8.50;;;;;;;13.44;55.90;96928.08;106985;1275;25392;-86
2023/04/24 05:53:38;;;;;;;9.00;7.60;;;;;;;13.56;55.88;96928.35;106885;1275;22637;-87
2023/04/24 05:56:07;;;;;;;8.80;7.80;;;;;;;13.67;55.66;96926.68;107115;1275;22747;-85
2023/04/24 05:58:37;;;;;;;13.40;8.80;;;;;;;13.80;55.27;96924.41;107116;1275;22598;-87
2023/04/24 06:01:05;;;;;;;11.60;10.10;;;;;;;13.92;54.98;96925.99;107010;1275;22567;-88
2023/04/24 06:03:35;;;;;;;11.80;8.20;;;;;;;14.05;54.86;96926.73;107036;1275;22637;-88
2023/04/24 06:06:04;;;;;;;12.90;8.70;;;;;;;14.17;54.33;96923.59;107018;1275;23888;-88
2023/04/24 06:08:34;;;;;;;12.70;8.80;;;;;;;14.30;54.10;96917.59;107054;1275;22572;-88
2023/04/24 06:11:02;;;;;;;11.80;8.60;;;;;;;14.45;53.84;96921.87;107245;1275;22667;-88
2023/04/24 06:13:32;;;;;;;13.90;8.70;;;;;;;14.56;53.47;96921.92;107239;1275;22671;-89
2023/04/24 06:16:19;;;;;;;11.60;8.30;;;;;;;14.70;53.88;96911.91;106958;1275;22601;-88
2023/04/24 06:18:52;;;;;;;11.30;7.90;;;;;;;14.83;53.36;96905.48;106790;1275;22600;-88
2023/04/24 06:21:20;;;;;;;12.80;7.90;;;;;;;14.93;51.97;96905.50;106821;1253;22644;-89
2023/04/24 06:23:49;;;;;;;15.80;9.20;;;;;;;15.03;51.99;96903.88;106849;1276;25542;-88
2023/04/24 06:26:17;;;;;;;10.80;8.80;;;;;;;15.13;51.70;96905.58;107110;1275;22596;-87
2023/04/24 06:28:47;;;;;;;11.50;7.30;;;;;;;15.24;51.63;96902.10;107027;1276;22751;-87
2023/04/24 06:31:18;;;;;;;11.70;8.20;;;;;;;15.31;50.58;96899.71;107899;1275;22964;-88
2023/04/24 06:33:49;;;;;;;14.40;8.80;;;;;;;15.39;50.64;96897.86;107282;1272;22588;-87
2023/04/24 06:36:17;;;;;;;11.50;7.50;;;;;;;15.47;49.85;96898.27;107875;1276;25384;-87
2023/04/24 06:38:45;;;;;;;13.00;7.50;;;;;;;15.55;49.74;96896.44;107255;1275;24193;-86
2023/04/24 06:41:13;;;;;;;8.30;7.10;;;;;;;15.63;49.14;96892.87;107254;1275;24237;-86
2023/04/24 06:43:48;;;;;;;12.10;7.80;;;;;;;15.72;49.49;96889.90;107743;1275;22547;-86
2023/04/24 06:46:16;;;;;;;10.90;7.50;;;;;;;15.79;48.98;96886.64;107571;1275;24169;-87
2023/04/24 06:48:44;;;;;;;9.00;6.70;;;;;;;15.88;49.04;96881.69;107126;1274;25396;-87
2023/04/24 06:51:12;;;;;;;10.60;7.40;;;;;;;15.97;49.15;96881.94;106964;1275;25310;-88
2023/04/24 06:53:40;;;;;;;13.40;8.90;;;;;;;16.04;48.53;96876.82;107016;1275;22527;-88
2023/04/24 06:56:08;;;;;;;11.70;7.20;;;;;;;16.12;48.10;96872.98;107021;1275;22524;-86
2023/04/24 06:58:36;;;;;;;8.50;6.60;;;;;;;16.21;48.47;96874.40;107033;1275;25361;-89
2023/04/24 07:01:04;;;;;;;8.50;6.60;;;;;;;16.32;48.38;96871.88;106931;1275;22573;-89
2023/04/24 07:03:32;;;;;;;10.30;7.10;;;;;;;16.43;47.48;96874.11;106974;1275;22647;-88
2023/04/24 07:06:00;;;;;;;9.90;6.60;;;;;;;16.52;47.08;96876.42;107031;1275;22631;-89
2023/04/24 07:08:30;;;;;;;7.10;6.20;;;;;;;16.62;47.57;96871.55;107051;1275;25319;-90
2023/04/24 07:10:59;;;;;;;7.50;6.30;;;;;;;16.69;46.91;96866.05;107608;1275;22614;-88
2023/04/24 07:13:27;;;;;;;7.80;6.30;;;;;;;16.76;47.08;96864.95;107170;1264;22949;-88
2023/04/24 07:15:56;;;;;;;8.00;6.10;;;;;;;16.82;46.51;96864.91;107164;1275;22532;-87
2023/04/24 07:18:24;;;;;;;8.50;6.70;;;;;;;16.91;46.82;96860.53;106785;1275;22483;-87
2023/04/24 07:20:52;;;;;;;7.30;6.20;;;;;;;17.00;46.49;96860.67;107034;1275;25338;-88
2023/04/24 07:23:20;;;;;;;7.40;5.60;;;;;;;17.11;46.18;96858.59;106863;1275;22517;-88
2023/04/24 07:25:48;;;;;;;12.80;6.20;;;;;;;17.20;45.70;96857.09;106993;1275;22570;-89
2023/04/24 07:28:17;;;;;;;13.10;6.00;;;;;;;17.34;45.65;96857.98;107006;1275;26512;-88
2023/04/24 07:30:46;;;;;;;8.50;6.20;;;;;;;17.51;45.52;96859.06;107012;1275;23906;-88
2023/04/24 07:33:14;;;;;;;11.10;6.30;;;;;;;17.64;44.92;96857.36;106962;1275;22548;-88
2023/04/24 07:35:42;;;;;;;7.90;5.50;;;;;;;17.76;44.57;96858.60;106964;1275;25233;-88
2023/04/24 07:38:10;;;;;;;8.30;5.90;;;;;;;17.87;44.34;96855.88;107005;1275;22940;-88
2023/04/24 07:40:38;;;;;;;9.50;5.30;;;;;;;18.02;44.48;96854.16;107023;1275;25469;-88
2023/04/24 07:43:06;;;;;;;9.20;5.50;;;;;;;18.13;44.20;96849.38;106993;1275;22518;-84
2023/04/24 07:45:37;;;;;;;7.30;6.20;;;;;;;18.22;43.24;96850.80;107011;1254;22652;-87
2023/04/24 07:48:05;;;;;;;8.00;5.40;;;;;;;18.32;42.40;96849.42;107050;1275;22627;-89
2023/04/24 07:50:34;;;;;;;9.50;5.40;;;;;;;18.43;42.03;96850.76;106965;1275;22535;-88
2023/04/24 07:53:02;;;;;;;7.10;5.60;;;;;;;18.52;42.25;96850.52;107015;1275;22870;-89
2023/04/24 07:55:31;;;;;;;8.10;5.40;;;;;;;18.61;41.61;96846.48;106984;1275;25481;-88
2023/04/24 07:57:59;;;;;;;9.50;5.80;;;;;;;18.72;40.46;96844.79;107007;1275;23108;-89
2023/04/24 08:00:27;;;;;;;7.60;5.80;;;;;;;18.80;40.62;96842.77;107094;1275;24376;-89
2023/04/24 08:02:55;;;;;;;7.90;5.10;;;;;;;18.92;39.93;96839.12;107106;1275;22637;-89
2023/04/24 08:05:25;;;;;;;5.90;4.90;;;;;;;18.93;39.59;96834.14;106843;1275;22527;-88
2023/04/24 08:07:54;;;;;;;8.30;5.50;;;;;;;18.94;37.63;96830.71;107105;1275;24430;-88
2023/04/24 08:10:23;;;;;;;7.90;4.90;;;;;;;18.95;37.31;96831.11;107090;1275;22524;-90
2023/04/24 08:12:51;;;;;;;6.30;5.20;;;;;;;18.98;37.97;96828.00;107070;1275;22630;-89
2023/04/24 08:15:20;;;;;;;9.30;5.10;;;;;;;19.01;36.48;96827.09;107088;1254;24205;-88
2023/04/24 08:17:48;;;;;;;8.40;5.40;;;;;;;18.96;37.41;96825.73;107123;1275;24234;-88
2023/04/24 08:20:16;;;;;;;7.70;5.30;;;;;;;18.96;36.32;96825.65;107049;1275;22532;-89
2023/04/24 08:22:44;;;;;;;7.50;4.80;;;;;;;18.93;36.62;96823.84;107164;1275;25384;-88
2023/04/24 08:25:13;;;;;;;11.00;5.00;;;;;;;18.94;36.97;96822.98;107021;1275;22540;-88
2023/04/24 08:27:41;;;;;;;8.40;4.90;;;;;;;19.01;36.99;96822.41;107000;1275;22537;-87
2023/04/24 08:30:10;;;;;;;7.20;5.00;;;;;;;19.15;36.22;96821.23;106873;1275;22636;-88
2023/04/24 08:32:38;;;;;;;9.80;4.80;;;;;;;19.19;36.39;96823.69;107070;1275;22574;-88
2023/04/24 08:35:08;;;;;;;6.70;5.00;;;;;;;19.32;36.83;96818.92;107118;1275;22570;-87
2023/04/24 08:37:37;;;;;;;8.80;4.80;;;;;;;19.49;36.39;96814.96;106990;1275;22596;-86
2023/04/24 08:40:16;;;;;;;10.00;5.50;;;;;;;19.65;36.41;96814.25;106960;1275;22533;-88
2023/04/24 08:42:45;;;;;;;14.30;5.80;;;;;;;19.83;36.29;96813.02;107164;1275;24189;-89
2023/04/24 08:45:13;;;;;;;7.60;5.30;;;;;;;19.97;36.30;96813.12;107087;1275;25984;-87
2023/04/24 08:47:42;;;;;;;10.80;5.00;;;;;;;20.02;35.54;96814.54;107039;1275;27492;-89
2023/04/24 08:50:11;;;;;;;8.30;5.00;;;;;;;20.10;35.69;96815.27;107200;1275;24755;-87
2023/04/24 08:52:42;;;;;;;6.60;4.80;;;;;;;20.23;35.23;96812.23;106811;1275;24061;-87
2023/04/24 08:55:10;;;;;;;8.00;4.60;;;;;;;20.37;35.63;96811.55;107056;1275;24199;-87
2023/04/24 08:57:40;;;;;;;7.20;4.90;;;;;;;20.47;35.85;96810.06;107037;1275;25319;-89
2023/04/24 09:00:08;;;;;;;7.80;5.10;;;;;;;20.66;36.11;96809.48;107077;1275;22641;-88
2023/04/24 09:02:43;;;;;;;8.40;5.00;;;;;;;20.89;35.07;96809.63;107124;1275;25274;-88
2023/04/24 09:05:14;;;;;;;6.40;5.00;;;;;;;21.03;35.04;96809.76;107275;1275;24167;-90
2023/04/24 09:07:54;;;;;;;6.30;4.50;;;;;;;21.15;34.68;96807.46;106915;1277;24203;-88
2023/04/24 09:10:24;;;;;;;7.40;4.60;;;;;;;21.27;34.94;96803.21;107168;1275;24394;-87
2023/04/24 09:12:54;;;;;;;5.70;4.40;;;;;;;21.34;35.15;96803.75;107136;1275;22519;-87
2023/04/24 09:15:22;;;;;;;7.90;5.20;;;;;;;21.40;34.75;96800.08;107223;1275;22560;-89
2023/04/24 09:17:50;;;;;;;8.00;4.90;;;;;;;21.47;33.87;96805.06;106965;1275;22528;-88
2023/04/24 09:20:18;;;;;;;8.90;4.50;;;;;;;21.50;34.01;96798.16;106847;1275;22543;-88
2023/04/24 09:22:47;;;;;;;7.80;4.80;;;;;;;21.47;33.53;96793.15;107023;1275;25493;-89
2023/04/24 09:25:16;;;;;;;10.30;5.30;;;;;;;21.30;32.04;96794.52;107053;1275;22524;-89
2023/04/24 09:27:45;;;;;;;7.90;4.60;;;;;;;21.06;32.40;96795.52;107069;1275;25294;-87
2023/04/24 09:30:20;;;;;;;10.00;5.10;;;;;;;20.96;32.51;96792.48;107014;1275;25011;-88
2023/04/24 09:32:48;;;;;;;7.00;4.60;;;;;;;20.89;32.05;96793.35;106876;1275;22527;-87
2023/04/24 09:35:16;;;;;;;7.20;4.40;;;;;;;20.75;32.13;96790.16;107043;1275;22608;-89
2023/04/24 09:37:46;;;;;;;9.90;4.60;;;;;;;20.66;31.69;96789.30;107392;1275;22577;-89
2023/04/24 09:40:19;;;;;;;6.50;4.50;;;;;;;20.58;31.01;96784.63;107721;1275;22785;-89
2023/04/24 09:42:54;;;;;;;9.80;5.40;;;;;;;20.52;31.41;96782.80;106806;1275;22661;-87
2023/04/24 09:45:27;;;;;;;8.70;4.50;;;;;;;20.56;30.87;96782.73;107087;1275;24115;-86
2023/04/24 09:47:55;;;;;;;5.80;4.80;;;;;;;20.60;31.18;96783.21;107130;1275;24137;-85
2023/04/24 09:50:23;;;;;;;6.30;4.70;;;;;;;20.69;31.19;96778.98;107121;1275;22545;-88
2023/04/24 09:53:07;;;;;;;8.20;4.80;;;;;;;20.68;30.57;96776.48;106770;1275;22533;-87
2023/04/24 09:55:40;;;;;;;6.70;5.10;;;;;;;20.63;31.18;96773.59;107044;1275;25204;-87
2023/04/24 09:58:09;;;;;;;10.80;4.90;;;;;;;20.69;31.00;96773.51;107076;1275;23015;-87
2023/04/24 10:00:37;;;;;;;11.10;5.00;;;;;;;20.68;31.23;96772.02;107052;1275;22514;-86
2023/04/24 10:03:05;;;;;;;31.50;6.60;;;;;;;20.67;31.38;96771.77;107060;1275;24475;-87
2023/04/24 10:05:38;;;;;;;6.20;4.80;;;;;;;20.68;30.93;96765.92;107010;1275;24190;-84
2023/04/24 10:08:08;;;;;;;9.50;4.50;;;;;;;20.64;30.96;96770.30;107092;1275;22564;-86
2023/04/24 10:10:44;;;;;;;9.50;4.60;;;;;;;20.69;31.23;96768.50;107058;1275;24420;-88
2023/04/24 10:13:14;;;;;;;7.20;4.50;;;;;;;20.79;31.10;96767.08;107057;1275;23966;-87
2023/04/24 10:15:43;;;;;;;11.50;4.20;;;;;;;20.83;31.21;96766.69;107076;1275;25511;-87
2023/04/24 10:18:11;;;;;;;5.00;4.50;;;;;;;20.94;31.22;96764.32;106990;1275;22522;-87
2023/04/24 10:20:40;;;;;;;28.20;5.40;;;;;;;21.10;31.34;96761.15;107041;1275;22630;-86
2023/04/24 10:23:11;;;;;;;9.10;4.20;;;;;;;21.26;30.93;96760.48;107003;1275;22587;-87
2023/04/24 10:25:40;;;;;;;6.00;4.00;;;;;;;21.36;29.41;96762.42;107046;1275;25536;-87
2023/04/24 10:28:09;;;;;;;6.40;4.20;;;;;;;21.46;30.29;96758.23;107032;1275;27034;-87
2023/04/24 10:30:42;;;;;;;7.80;4.90;;;;;;;21.61;29.99;96761.77;107128;1275;22576;-87
2023/04/24 10:33:31;;;;;;;5.80;4.10;;;;;;;21.76;29.58;96758.64;107038;1275;24827;-87
2023/04/24 10:36:00;;;;;;;7.80;4.20;;;;;;;21.88;29.88;96758.17;106995;1275;24256;-87
2023/04/24 10:38:30;;;;;;;9.30;3.90;;;;;;;22.05;29.88;96753.45;106883;1275;24282;-87
2023/04/24 10:41:15;;;;;;;8.30;4.30;;;;;;;22.23;30.29;96750.84;107046;1275;22494;-86
2023/04/24 10:43:44;;;;;;;10.50;4.50;;;;;;;22.48;29.94;96746.73;107375;1275;24352;-86
2023/04/24 10:46:19;;;;;;;7.00;4.00;;;;;;;22.62;29.85;96745.13;107088;1275;24680;-86
2023/04/24 10:48:55;;;;;;;6.60;4.30;;;;;;;22.69;28.80;96741.52;106929;1275;25317;-87
2023/04/24 10:51:24;;;;;;;7.90;4.80;;;;;;;22.66;28.00;96742.33;107022;1275;24326;-87
2023/04/24 10:53:52;;;;;;;8.40;4.80;;;;;;;22.53;27.53;96739.63;107213;1275;22644;-87
2023/04/24 10:56:21;;;;;;;5.60;4.20;;;;;;;22.34;26.90;96736.80;107022;1275;22528;-87
2023/04/24 10:58:52;;;;;;;7.80;3.60;;;;;;;22.21;27.95;96733.30;107059;1275;25329;-88
2023/04/24 11:01:32;;;;;;;5.50;3.90;;;;;;;22.30;27.36;96729.00;107100;1275;22633;-87
2023/04/24 11:04:03;;;;;;;7.60;4.30;;;;;;;22.37;26.59;96731.45;106856;1275;22850;-88
2023/04/24 11:06:36;;;;;;;7.30;4.00;;;;;;;22.33;26.96;96730.08;106883;1275;22577;-88
2023/04/24 11:09:12;;;;;;;5.90;4.30;;;;;;;22.21;26.81;96729.67;107046;1275;25468;-89
2023/04/24 11:11:46;;;;;;;6.20;4.50;;;;;;;21.95;27.42;96731.58;107247;1275;25919;-88
2023/04/24 11:14:15;;;;;;;10.10;4.80;;;;;;;21.79;27.63;96729.48;108111;1275;22612;-88
2023/04/24 11:16:53;;;;;;;6.70;4.50;;;;;;;21.58;28.16;96726.86;106797;1275;22591;-89
2023/04/24 11:19:24;;;;;;;11.80;4.90;;;;;;;21.47;28.21;96731.77;107062;1275;22513;-88
2023/04/24 11:22:14;;;;;;;13.00;6.60;;;;;;;21.34;28.58;96740.25;107134;1275;22633;-88
2023/04/24 11:24:45;;;;;;;11.00;6.10;;;;;;;20.97;29.94;96733.48;107294;1275;22532;-90
2023/04/24 11:27:19;;;;;;;12.70;7.00;;;;;;;20.58;31.20;96744.33;107163;1275;25690;-89
2023/04/24 11:29:57;;;;;;;15.20;7.90;;;;;;;20.18;32.12;96743.61;106786;1268;22788;-89
2023/04/24 11:32:27;;;;;;;13.60;7.70;;;;;;;20.03;32.53;96740.01;107064;1275;22914;-89
2023/04/24 11:35:03;;;;;;;11.20;6.50;;;;;;;19.94;32.90;96739.21;107083;1275;22524;-89